Latest Weather Observations for Hopetoun Airport

IDV60801

Issued at 7:32 pm EDT Tuesday 26 January 2021 (issued every 10 minutes, with the page automatically refreshed every 10 minutes)

About weather observations | Map of weather stations | Latest weather observations for VIC | Other Formats
Station Details ID: 077010 Name: HOPETOUN AIRPORT Lat: -35.72 Lon: 142.36 Height: 77.3 m
Data from the previous 72 hours. | See also: Recent months at Hopetoun Airport
Date/Time
EDT
Temp
°C
App
Temp
°C
Dew
Point
°C
Rel
Hum
%
Delta-T
°C
Wind Press
QNH
hPa
Press
MSL
hPa
Rain since
9am
mm
Dir  Spd
km/h
Gust
km/h
Spd
kts
Gust
kts
26/07:30pm 26.3 22.5 9.2 34 9.4 S 19 28 10 15 1005.6 1005.2 0.2
26/07:00pm 26.8 23.5 9.6 34 9.6 S 17 24 9 13 1005.0 1004.6 0.2
26/06:30pm 26.5 23.0 8.9 33 9.6 S 17 26 9 14 1004.9 1004.5 0.2
26/06:00pm 26.8 23.5 9.6 34 9.6 SSW 17 28 9 15 1004.9 1004.5 0.2
26/05:30pm 27.0 23.9 10.2 35 9.4 SSW 17 30 9 16 1004.9 1004.5 0.2
26/05:00pm 27.3 23.9 10.5 35 9.5 SSW 19 33 10 18 1004.9 1004.5 0.2
26/04:30pm 27.1 24.3 11.2 37 9.1 SSW 17 24 9 13 1004.9 1004.5 0.2
26/04:00pm 26.5 23.7 11.4 39 8.6 SSW 17 28 9 15 1004.9 1004.5 0.2
26/03:30pm 25.0 22.5 12.2 44 7.4 S 17 26 9 14 1004.7 1004.3 0.2
26/03:00pm 26.1 23.2 13.9 47 7.3 SSW 22 32 12 17 1004.5 1004.1 0.2
26/02:30pm 26.1 23.1 14.9 50 6.8 SSW 24 39 13 21 1004.8 1004.4 0.2
26/02:00pm 25.1 22.7 15.4 55 5.9 S 22 32 12 17 1004.7 1004.3 0.2
26/01:30pm 24.2 21.4 15.4 58 5.3 S 24 33 13 18 1004.8 1004.4 0.2
26/01:00pm 23.4 21.3 16.2 64 4.4 SSW 22 33 12 18 1004.8 1004.4 0.2
26/12:30pm 23.0 21.3 16.3 66 4.1 SSW 20 30 11 16 1004.6 1004.2 0.2
26/12:00pm 22.2 20.0 16.0 68 3.8 SSW 22 32 12 17 1004.7 1004.3 0.2
26/11:30am 20.9 19.0 16.7 77 2.6 SSW 22 30 12 16 1004.6 1004.2 0.2
26/11:00am 20.5 18.5 17.5 83 1.9 SSW 24 33 13 18 1004.7 1004.3 0.2
26/10:30am 20.4 17.6 17.2 82 2.0 SSW 28 35 15 19 1004.2 1003.8 0.2
26/10:00am 21.5 20.1 17.9 80 2.2 SSW 22 32 12 17 1003.7 1003.3 0.2
26/09:30am 22.1 21.2 18.1 78 2.5 S 20 28 11 15 1003.3 1002.9 0.2
26/09:00am 21.4 20.9 17.8 80 2.2 S 17 28 9 15 1003.1 1002.7 12.4
26/08:30am 20.5 19.6 17.7 84 1.7 SSW 19 30 10 16 1002.9 1002.5 12.4
26/08:00am 20.1 20.3 19.4 96 0.4 SW 17 20 9 11 1002.2 1001.9 12.4
26/07:30am 19.9 20.0 19.1 95 0.5 SW 17 20 9 11 1001.9 1001.6 12.4
26/07:00am 19.8 20.1 18.8 94 0.6 SW 15 19 8 10 1001.6 1001.3 12.4
26/06:30am 20.0 20.3 18.8 93 0.8 SW 15 22 8 12 1001.5 1001.2 12.4
26/06:00am 20.0 19.6 19.0 94 0.6 SW 19 28 10 15 1000.9 1000.6 12.4
26/05:30am 20.0 19.7 19.2 95 0.5 SW 19 28 10 15 1000.4 1000.1 12.4
26/05:00am 20.6 20.6 20.1 97 0.3 SW 20 26 11 14 1000.0 999.7 12.4
26/04:30am 20.6 20.7 20.4 99 0.1 SW 20 28 11 15 999.8 999.4 12.4
26/04:00am 20.7 20.6 20.7 100 0.0 SW 22 30 12 16 999.6 999.2 12.4
26/03:30am 20.9 21.3 20.9 100 0.0 WSW 20 26 11 14 999.5 999.1 12.4
26/03:00am 20.9 20.9 20.9 100 0.0 WSW 22 30 12 16 999.7 999.3 12.4
26/02:30am 21.1 20.8 21.1 100 0.0 WSW 24 33 13 18 999.8 999.4 11.6
26/02:00am 22.1 23.1 22.1 100 0.0 WNW 20 35 11 19 999.7 999.3 10.8
26/01:30am 22.4 24.1 22.4 100 0.0 WNW 17 22 9 12 999.6 999.2 10.6
26/01:00am 22.4 25.3 22.4 100 0.0 WNW 11 17 6 9 999.5 999.1 10.6
26/12:30am 22.5 26.2 22.5 100 0.0 NNW 7 9 4 5 999.7 999.3 10.6
26/12:00am 22.5 26.4 22.5 100 0.0 NNW 6 7 3 4 1000.0 999.7 10.4
 
Date/Time
EDT
Temp
°C
App
Temp
°C
Dew
Point
°C
Rel
Hum
%
Delta-T
°C
Wind Press
QNH
hPa
Press
MSL
hPa
Rain since
9am
mm
Dir  Spd
km/h
Gust
km/h
Spd
kts
Gust
kts
25/11:30pm 22.4 26.2 22.4 100 0.0 ENE 6 9 3 5 999.5 999.1 10.0
25/11:00pm 22.1 25.7 22.1 100 0.0 E 6 7 3 4 999.6 999.2 10.0
25/10:30pm 22.1 25.2 22.1 100 0.0 ESE 9 13 5 7 999.4 999.0 10.0
25/10:00pm 22.2 25.9 22.2 100 0.0 E 6 6 3 3 1000.0 999.7 9.0
25/09:30pm 22.1 25.2 22.1 100 0.0 W 9 17 5 9 1000.7 1000.4 6.4
25/09:00pm 22.0 23.0 21.8 99 0.1 WSW 19 30 10 16 1000.4 1000.1 4.2
25/08:30pm 22.1 21.5 21.3 95 0.5 W 26 35 14 19 1000.7 1000.4 2.0
25/08:00pm 22.9 20.7 19.5 81 2.2 WSW 30 43 16 23 999.9 999.5 0.0
25/07:30pm 25.7 19.6 17.6 61 5.1 WSW 46 59 25 32 998.8 998.4 0.0
25/07:00pm 30.0 24.3 15.3 41 9.1 WSW 39 61 21 33 997.1 996.7 0.0
25/06:58pm 31.2 26.1 14.8 37 10.1 WSW 35 54 19 29 997.0 996.6 0.0
25/06:30pm 32.6 27.7 13.8 32 11.4 WSW 32 41 17 22 996.4 996.0 0.0
25/06:00pm 35.4 30.6 10.4 22 14.7 WNW 26 35 14 19 995.9 995.5 0.0
25/05:30pm 35.9 29.9 10.9 22 14.8 WNW 33 44 18 24 996.0 995.6 0.0
25/05:00pm 37.0 31.2 9.6 19 16.0 NW 30 39 16 21 996.4 996.0 0.0
25/04:30pm 37.1 31.2 10.4 20 15.7 NW 32 43 17 23 996.8 996.4 0.0
25/04:00pm 38.0 31.5 10.4 19 16.4 NW 35 50 19 27 997.1 996.7 0.0
25/03:30pm 36.9 31.2 11.7 22 15.1 NW 33 48 18 26 998.0 997.6 0.0
25/03:27pm 36.6 30.0 11.4 22 15.0 NW 37 48 20 26 998.0 997.6 0.0
25/03:00pm 37.3 30.3 11.3 21 15.6 NNW 39 54 21 29 998.4 998.0 0.0
25/02:30pm 37.6 31.2 10.8 20 15.9 NW 35 50 19 27 998.8 998.4 0.0
25/02:01pm 38.0 30.4 10.4 19 16.3 NW 41 59 22 32 998.8 998.4 0.0
25/02:00pm 38.1 30.9 10.5 19 16.4 NW 39 56 21 30 998.7 998.3 0.0
25/01:30pm 38.0 29.6 9.6 18 16.6 NNW 44 67 24 36 999.3 998.9 0.0
25/01:00pm 38.4 32.5 9.0 17 17.1 NNW 30 50 16 27 999.9 999.5 0.0
25/12:46pm 38.0 32.4 8.7 17 16.9 NNW 28 50 15 27 1000.2 999.9 0.0
25/12:30pm 37.6 31.2 8.4 17 16.7 NNW 32 43 17 23 1000.5 1000.2 0.0
25/12:14pm 37.6 31.2 8.4 17 16.7 NNW 32 46 17 25 1000.5 1000.2 0.0
25/12:00pm 37.5 33.1 6.5 15 17.3 NNW 19 26 10 14 1000.8 1000.5 0.0
25/11:30am 36.9 32.5 5.0 14 17.3 NW 17 24 9 13 1001.1 1000.8 0.0
25/11:00am 36.6 31.1 5.8 15 16.9 NW 24 33 13 18 1001.5 1001.2 0.0
25/10:30am 35.8 30.0 6.1 16 16.3 NNW 26 35 14 19 1001.7 1001.4 0.0
25/10:00am 35.3 28.6 5.7 16 16.2 NNW 30 39 16 21 1001.7 1001.4 0.0
25/09:30am 34.8 29.0 6.2 17 15.6 NNW 26 33 14 18 1001.8 1001.5 0.0
25/09:00am 33.3 28.3 6.6 19 14.6 N 22 28 12 15 1001.7 1001.4 0.0
25/08:30am 31.6 27.6 6.6 21 13.5 N 17 22 9 12 1001.7 1001.4 0.0
25/08:00am 29.9 26.6 6.5 23 12.6 N 13 17 7 9 1001.8 1001.5 0.0
25/07:30am 28.2 25.3 6.3 25 11.6 NNE 11 15 6 8 1001.8 1001.5 0.0
25/07:00am 26.9 24.2 5.8 26 11.0 NNE 9 13 5 7 1001.7 1001.4 0.0
25/06:30am 26.8 24.1 5.7 26 10.9 N 9 11 5 6 1001.6 1001.3 0.0
25/06:00am 26.6 23.9 5.5 26 10.9 N 9 9 5 5 1001.7 1001.4 0.0
25/05:30am 26.1 22.9 5.1 26 10.7 NW 11 15 6 8 1001.5 1001.2 0.0
25/05:00am 25.8 23.2 4.3 25 10.9 NW 7 11 4 6 1001.3 1001.0 0.0
25/04:30am 26.8 24.4 5.1 25 11.1 NNW 7 11 4 6 1001.3 1001.0 0.0
25/04:00am 28.8 26.1 5.6 23 12.2 N 9 15 5 8 1001.4 1001.1 0.0
25/03:30am 29.1 25.0 4.6 21 12.6 NNW 15 17 8 9 1001.6 1001.3 0.0
25/03:00am 29.3 25.3 4.7 21 12.8 N 15 17 8 9 1001.6 1001.3 0.0
25/02:30am 29.9 26.2 4.5 20 13.1 N 13 17 7 9 1001.8 1001.5 0.0
25/02:00am 28.9 26.3 4.4 21 12.6 N 7 9 4 5 1002.0 1001.7 0.0
25/01:30am 30.4 27.4 4.2 19 13.5 N 9 11 5 6 1002.0 1001.7 0.0
25/01:00am 32.3 29.1 5.0 18 14.5 N 11 15 6 8 1002.1 1001.8 0.0
25/12:30am 33.1 29.5 4.8 17 15.0 NNE 13 17 7 9 1002.1 1001.8 0.0
25/12:00am 33.9 30.1 3.7 15 15.8 N 13 17 7 9 1002.3 1002.0 0.0
 
Date/Time
EDT
Temp
°C
App
Temp
°C
Dew
Point
°C
Rel
Hum
%
Delta-T
°C
Wind Press
QNH
hPa
Press
MSL
hPa
Rain since
9am
mm
Dir  Spd
km/h
Gust
km/h
Spd
kts
Gust
kts
24/11:30pm 34.9 31.4 3.5 14 16.4 N 11 13 6 7 1002.4 1002.1 0.0
24/11:00pm 35.1 31.6 3.6 14 16.6 NNE 11 15 6 8 1002.6 1002.3 0.0
24/10:30pm 37.1 33.0 4.1 13 17.7 NNE 15 30 8 16 1002.8 1002.4 0.0
24/10:00pm 36.1 31.8 3.3 13 17.3 NNE 15 20 8 11 1002.6 1002.3 0.0
24/09:30pm 35.7 31.9 1.9 12 17.3 N 11 17 6 9 1002.5 1002.2 0.0
24/09:00pm 35.3 31.9 1.6 12 17.2 NW 9 11 5 6 1002.4 1002.1 0.0
24/08:30pm 37.9 34.0 1.0 10 18.9 NW 11 19 6 10 1002.3 1002.0 0.0
24/08:00pm 39.5 30.6 0.8 9 20.0 NNW 37 52 20 28 1002.2 1001.9 0.0
24/07:47pm 39.5 32.3 0.8 9 19.9 NNW 28 48 15 26 1002.0 1001.7 0.0
24/07:46pm 39.5 32.3 0.8 9 19.9 NNW 28 43 15 23 1002.0 1001.7 0.0
24/07:30pm 40.0 35.3 1.1 9 20.2 NNW 15 22 8 12 1002.1 1001.8 0.0
24/07:00pm 41.1 35.0 0.3 8 21.2 N 22 30 12 16 1001.9 1001.6 0.0
24/06:30pm 41.2 37.9 0.4 8 21.1 NNW 7 13 4 7 1002.1 1001.8 0.0
24/06:00pm 41.8 37.6 -1.0 7 21.8 NW 11 17 6 9 1002.3 1002.0 0.0
24/05:30pm 41.4 36.8 -1.3 7 21.6 N 13 24 7 13 1002.9 1002.5 0.0
24/05:00pm 42.3 37.0 -0.6 7 22.1 N 17 39 9 21 1003.1 1002.7 0.0
24/04:30pm 41.6 37.0 -1.1 7 21.7 N 13 28 7 15 1003.5 1003.1 0.0
24/04:00pm 42.1 37.5 -0.8 7 22.0 N 13 24 7 13 1004.1 1003.7 0.0
24/03:30pm 40.7 36.8 -1.8 7 21.2 NW 9 19 5 10 1004.7 1004.3 0.0
24/03:00pm 40.2 35.8 -2.1 7 21.0 NE 11 20 6 11 1005.3 1004.9 0.0
24/02:30pm 40.8 35.1 -3.8 6 21.6 NNW 17 24 9 13 1005.8 1005.4 0.0
24/02:00pm 40.7 34.4 -3.9 6 21.6 N 20 30 11 16 1006.4 1006.0 0.0
24/01:30pm 40.2 34.3 -2.1 7 21.0 N 19 32 10 17 1006.9 1006.5 0.0
24/01:00pm 39.0 33.2 -1.2 8 20.1 N 19 32 10 17 1007.4 1007.0 0.0
24/12:30pm 38.4 33.2 0.0 9 19.4 N 17 30 9 16 1007.9 1007.5 0.0
24/12:00pm 38.2 32.6 -0.2 9 19.4 N 19 33 10 18 1008.3 1007.9 0.0
24/11:30am 36.4 31.4 3.6 13 17.3 NNE 19 28 10 15 1008.7 1008.3 0.0
24/11:00am 35.7 30.8 5.1 15 16.5 NNE 20 26 11 14 1008.9 1008.5 0.0
24/10:30am 34.5 29.8 5.9 17 15.5 NNE 20 26 11 14 1009.2 1008.8 0.0
24/10:00am 32.1 27.6 7.0 21 13.7 NE 20 26 11 14 1009.5 1009.1 0.0
24/09:30am 31.3 27.2 7.7 23 13.0 NE 19 24 10 13 1009.4 1009.0 0.0
24/09:00am 27.9 24.3 9.7 32 10.2 ENE 19 24 10 13 1009.5 1009.1 0.0
24/08:30am 24.8 21.7 10.3 40 8.1 E 17 22 9 12 1009.5 1009.1 0.0
24/08:00am 23.1 21.1 10.2 44 7.1 E 11 15 6 8 1009.4 1009.0 0.0
24/07:30am 21.8 20.1 9.7 46 6.5 E 9 11 5 6 1009.3 1008.9 0.0
24/07:00am 21.5 19.8 9.7 47 6.4 ESE 9 13 5 7 1009.1 1008.7 0.0
24/06:30am 21.5 19.8 9.7 47 6.4 E 9 13 5 7 1008.9 1008.5 0.0
24/06:00am 21.1 19.4 9.7 48 6.2 E 9 13 5 7 1008.5 1008.1 0.0
24/05:30am 20.9 19.1 9.5 48 6.1 E 9 11 5 6 1008.3 1007.9 0.0
24/05:00am 22.2 19.8 10.0 46 6.7 ESE 13 17 7 9 1008.2 1007.8 0.0
24/04:30am 22.5 20.2 10.3 46 6.7 ESE 13 17 7 9 1008.1 1007.7 0.0
24/04:00am 22.8 20.0 9.9 44 7.1 ESE 15 19 8 10 1008.2 1007.8 0.0
24/03:30am 23.5 20.3 9.9 42 7.5 ESE 17 20 9 11 1008.3 1007.9 0.0
24/03:00am 23.5 20.6 9.5 41 7.6 ESE 15 20 8 11 1008.6 1008.2 0.0
24/02:30am 24.4 21.2 9.9 40 8.0 SE 17 20 9 11 1008.8 1008.4 0.0
24/02:00am 24.8 21.0 9.1 37 8.6 SE 19 22 10 12 1008.9 1008.5 0.0
24/01:30am 25.1 21.3 7.7 33 9.2 SE 17 20 9 11 1009.2 1008.8 0.0
24/01:00am 25.9 21.8 6.0 28 10.3 SE 17 22 9 12 1009.5 1009.1 0.0
24/12:30am 26.5 23.0 5.5 26 10.8 SE 13 17 7 9 1009.7 1009.3 0.0
24/12:00am 27.1 23.6 5.4 25 11.2 SSE 13 15 7 8 1009.8 1009.4 0.0
 
Date/Time
EDT
Temp
°C
App
Temp
°C
Dew
Point
°C
Rel
Hum
%
Delta-T
°C
Wind Press
QNH
hPa
Press
MSL
hPa
Rain since
9am
mm
Dir  Spd
km/h
Gust
km/h
Spd
kts
Gust
kts
23/11:30pm 27.5 24.4 5.7 25 11.3 SSE 11 15 6 8 1009.9 1009.5 0.0
23/11:00pm 29.0 25.4 5.1 22 12.4 SSE 13 17 7 9 1009.9 1009.5 0.0
23/10:30pm 29.6 25.6 5.0 21 12.8 SSE 15 20 8 11 1009.9 1009.5 0.0
23/10:00pm 30.9 27.2 4.6 19 13.7 S 13 17 7 9 1009.5 1009.1 0.0
23/09:30pm 31.5 28.7 5.1 19 13.9 SSE 9 13 5 7 1009.2 1008.8 0.0
23/09:00pm 32.8 29.9 4.6 17 14.9 S 9 13 5 7 1008.8 1008.4 0.0
23/08:30pm 34.5 30.7 4.1 15 16.0 S 13 17 7 9 1008.4 1008.0 0.0
23/08:00pm 35.8 30.7 4.2 14 16.9 SSW 20 26 11 14 1008.1 1007.7 0.0

Other formats

Comma delimited format used in spreadsheet applications
http://www.bom.gov.au/fwo/IDV60801/IDV60801.94838.axf

JavaScript Object Notation format (JSON) in row-major order
http://www.bom.gov.au/fwo/IDV60801/IDV60801.94838.json

Data quality

Most of these data are generated automatically and are frequently updated. Quality checks on data are not normally performed. It is possible for incorrect values to appear. Refer to information at About Latest Weather Observations and please check the disclaimer before using these data.